Flight Track Log - Related Links

Times and Time Zones

All times are in EDT time to prevent confusion due to time zone crossing. See the SWA1096 flight status page for this flight to view local times or setup timezone preferences in your user account.

Time Position Orientation Groundspeed Altitude Reporting Facility
EDT Latitude Longitude Course Direction KTS MPH feet Rate Location/Type
Thu 11:04:07 AM 40.8258 -111.9672 354° North 181 208 5,700  Level Salt Lake Center
Thu 11:04:34 AM 40.8472 -111.9692 356° North 180 207 6,300 2,386 Climbing Salt Lake Center
Thu 11:05:35 AM 40.9097 -111.9778 354° North 220 253 9,200 3,057 Climbing Salt Lake Center
Thu 11:06:20 AM 40.9550 -111.9458 28° Northeast 254 292 11,700 3,000 Climbing Salt Lake Center
Thu 11:06:37 AM 40.9583 -111.9292 75° East 262 302 12,300 2,459 Climbing Salt Lake Center
Thu 11:07:21 AM 40.9194 -111.8528 124° Southeast 322 371 14,200 1,967 Climbing Salt Lake Center
Thu 11:07:38 AM 40.9106 -111.8408 135° Southeast 321 369 14,300 2,734 Climbing Salt Lake Center
Thu 11:08:40 AM 40.8258 -111.7228 133° Southeast 372 428 17,800 2,903 Climbing Salt Lake Center
Thu 11:09:42 AM 40.7547 -111.6114 130° Southeast 402 463 20,300 2,537 Climbing Salt Lake Center
Thu 11:10:43 AM 40.7147 -111.4772 111° Southeast 396 456 23,000 2,488 Climbing Salt Lake Center
Thu 11:11:45 AM 40.6733 -111.3328 111° Southeast 421 484 25,400 2,177 Climbing Salt Lake Center
Thu 11:12:47 AM 40.6317 -111.1906 111° Southeast 418 481 27,500 1,756 Climbing Salt Lake Center
Thu 11:13:48 AM 40.5883 -111.0408 111° Southeast 432 497 29,000 780 Climbing Salt Lake Center
Thu 11:14:50 AM 40.5356 -110.8567 111° Southeast 447 514 29,100 726 Climbing Salt Lake Center
Thu 11:15:52 AM 40.5031 -110.7006 105° East 445 512 30,500 1,610 Climbing Salt Lake Center
Thu 11:16:53 AM 40.4658 -110.5281 106° East 461 531 32,400 1,805 Climbing Salt Lake Center
Thu 11:17:55 AM 40.4344 -110.3747 105° East 455 524 34,200 1,355 Climbing Salt Lake Center
Thu 11:18:57 AM 40.4008 -110.2214 106° East 455 524 35,200 1,258 Climbing Salt Lake Center
Thu 11:19:59 AM 40.3625 -110.0381 105° East 466 536 36,800 1,317 Climbing Salt Lake Center
Thu 11:21:00 AM 40.3297 -109.8833 105° East 461 531 37,900 780 Climbing Salt Lake Center
Thu 11:22:02 AM 40.2894 -109.7014 106° East 464 534 38,400 532 Climbing Salt Lake Center
Thu 11:23:04 AM 40.2539 -109.5406 106° East 478 550 39,000 290 Climbing Salt Lake Center
Thu 11:24:06 AM 40.2125 -109.3528 106° East 480 552 39,000  Level Salt Lake Center
Thu 11:25:07 AM 40.1769 -109.1933 106° East 477 549 39,000  Level Salt Lake Center
Thu 11:25:43 AM 40.1531 -109.0836 106° East 477 549 39,000  Level Denver Center
Thu 11:26:45 AM 40.1178 -108.9244 106° East 474 545 39,000  Level Denver Center
Thu 11:27:47 AM 40.0747 -108.7372 107° East 476 548 39,000  Level Denver Center
Thu 11:28:49 AM 40.0383 -108.5756 106° East 479 551 39,000  Level Denver Center
Thu 11:29:51 AM 40.0011 -108.4142 107° East 483 556 39,000  Level Denver Center
Thu 11:30:53 AM 39.9578 -108.2264 107° East 483 556 39,000  Level Denver Center
Thu 11:31:54 AM 39.9194 -108.0653 107° East 485 558 39,000  Level Denver Center
Thu 11:32:56 AM 39.8750 -107.8794 107° East 479 551 39,000  Level Denver Center
Thu 11:33:58 AM 39.8381 -107.7203 107° East 480 552 39,000  Level Denver Center
Thu 11:35:00 AM 39.7944 -107.5344 107° East 480 552 39,000  Level Denver Center
Thu 11:36:02 AM 39.7558 -107.3772 108° East 479 551 39,000  Level Denver Center
Thu 11:37:03 AM 39.7178 -107.2197 107° East 478 550 39,000  Level Denver Center
Thu 11:38:05 AM 39.6725 -107.0328 107° East 485 558 39,000  Level Denver Center
Thu 11:39:07 AM 39.6308 -106.8731 109° East 489 563 39,000  Level Denver Center
Thu 11:40:09 AM 39.5878 -106.6872 107° East 483 556 39,000  Level Denver Center
Thu 11:41:11 AM 39.5478 -106.5292 108° East 482 555 39,000  Level Denver Center
Thu 11:43:14 AM 39.4606 -106.1789 108° East 481 554 39,000  Level Denver Center
Thu 11:44:16 AM 39.4208 -106.0272 109° East 481 554 39,000  Level Denver Center
Thu 11:45:18 AM 39.3794 -105.8614 108° East 482 555 39,000  Level Denver Center
Thu 11:46:19 AM 39.3292 -105.6686 109° East 483 556 39,000  Level Denver Center
Thu 11:47:21 AM 39.2864 -105.5019 108° East 485 558 39,000  Level Denver Center
Thu 11:48:23 AM 39.2433 -105.3367 109° East 485 558 39,000  Level Denver Center
Thu 11:49:25 AM 39.1997 -105.1736 109° East 479 551 39,000  Level Denver Center
Thu 11:50:26 AM 39.1567 -105.0097 109° East 483 556 39,000  Level Denver Center
Thu 11:51:28 AM 39.1122 -104.8447 109° East 486 559 39,000  Level Denver Center
Thu 11:52:30 AM 39.0683 -104.6794 109° East 488 562 39,000  Level Denver Center
Thu 11:53:32 AM 39.0158 -104.4856 109° East 489 563 39,000  Level Denver Center
Thu 11:54:33 AM 38.9711 -104.3169 109° East 494 568 39,000  Level Denver Center
Thu 11:55:35 AM 38.9244 -104.1500 110° East 494 568 39,000  Level Denver Center
Thu 11:56:37 AM 38.8783 -103.9864 110° East 486 559 39,000  Level Denver Center
Thu 11:57:38 AM 38.8308 -103.8147 110° East 485 558 39,000  Level Denver Center
Thu 11:58:40 AM 38.7867 -103.6575 110° East 487 560 39,000  Level Denver Center
Thu 11:59:42 AM 38.7358 -103.4767 110° East 483 556 39,000  Level Denver Center
Thu 12:00:44 PM 38.6950 -103.3328 110° East 482 555 39,000  Level Denver Center
Thu 12:01:45 PM 38.6486 -103.1703 110° East 484 557 39,000  Level Denver Center
Thu 12:02:47 PM 38.5953 -102.9808 110° East 483 556 39,000  Level Denver Center
Thu 12:03:49 PM 38.5483 -102.8156 110° East 483 556 39,000  Level Denver Center
Thu 12:04:50 PM 38.5017 -102.6611 111° Southeast 487 560 39,000  Level Denver Center
Thu 12:05:52 PM 38.4572 -102.5056 110° East 489 563 39,000  Level Denver Center
Thu 12:06:54 PM 38.4042 -102.3253 111° Southeast 485 558 39,000  Level Denver Center
Thu 12:07:55 PM 38.3581 -102.1711 111° Southeast 485 558 39,000  Level Denver Center
Thu 12:08:57 PM 38.3050 -101.9917 111° Southeast 485 558 39,000  Level Denver Center
Thu 12:09:59 PM 38.2594 -101.8378 111° Southeast 485 558 39,000  Level Denver Center
Thu 12:11:01 PM 38.2064 -101.6617 111° Southeast 479 551 39,000  Level Denver Center
Thu 12:12:02 PM 38.1606 -101.5108 111° Southeast 476 548 39,000  Level Denver Center
Thu 12:13:04 PM 38.1144 -101.3608 111° Southeast 476 548 39,000  Level Denver Center
Thu 12:14:06 PM 38.0758 -101.1747 105° East 497 572 39,000  Level Denver Center
Thu 12:15:08 PM 38.0872 -101.0025 85° East 511 588 39,000  Level Denver Center
Thu 12:16:09 PM 38.1000 -100.8019 85° East 507 583 39,000  Level Denver Center
Thu 12:16:40 PM 38.1047 -100.7136 86° East 508 585 39,000  Level Kansas City Center
Thu 12:17:44 PM 38.1161 -100.5419 85° East 508 585 39,000  Level Kansas City Center
Thu 12:18:46 PM 38.1283 -100.3403 86° East 510 587 39,000  Level Kansas City Center
Thu 12:19:46 PM 38.1383 -100.1656 86° East 515 593 39,000  Level Kansas City Center
Thu 12:20:47 PM 38.1492 -99.9894 85° East 520 598 39,000  Level Kansas City Center
Thu 12:21:50 PM 38.1628 -99.7842 85° East 521 600 39,000  Level Kansas City Center
Thu 12:22:52 PM 38.1717 -99.6078 86° East 521 600 39,000  Level Kansas City Center
Thu 12:23:52 PM 38.1819 -99.4061 86° East 524 603 39,000  Level Kansas City Center
Thu 12:24:54 PM 38.1925 -99.2214 86° East 525 604 39,000  Level Kansas City Center
Thu 12:25:57 PM 38.2031 -99.0378 86° East 520 598 39,000  Level Kansas City Center
Thu 12:26:59 PM 38.2133 -98.8547 86° East 521 600 39,000  Level Kansas City Center
Thu 12:27:59 PM 38.2244 -98.6692 86° East 523 602 39,000  Level Kansas City Center
Thu 12:29:03 PM 38.2333 -98.4858 86° East 517 595 39,000  Level Kansas City Center
Thu 12:30:03 PM 38.2422 -98.3022 86° East 519 597 39,000  Level Kansas City Center
Thu 12:31:04 PM 38.2508 -98.1172 87° East 519 597 39,000  Level Kansas City Center
Thu 12:32:08 PM 38.2589 -97.9319 87° East 518 596 39,000  Level Kansas City Center
Thu 12:33:09 PM 38.2686 -97.7103 87° East 518 596 39,000  Level Kansas City Center
Thu 12:34:09 PM 38.2753 -97.5292 87° East 510 587 39,000  Level Kansas City Center
Thu 12:35:12 PM 38.2831 -97.3497 87° East 506 582 39,000  Level Kansas City Center
Thu 12:36:14 PM 38.2894 -97.1708 87° East 504 580 39,000  Level Kansas City Center
Thu 12:37:13 PM 38.2961 -96.9944 87° East 501 577 39,000  Level Kansas City Center
Thu 12:38:17 PM 38.3022 -96.8161 87° East 502 578 39,000  Level Kansas City Center
Thu 12:39:17 PM 38.3078 -96.6392 88° East 501 577 39,000  Level Kansas City Center
Thu 12:40:18 PM 38.3139 -96.4500 88° East 498 573 39,000  Level Kansas City Center
Thu 12:41:22 PM 38.3192 -96.2533 88° East 497 572 39,000  Level Kansas City Center
Thu 12:42:23 PM 38.3239 -96.0853 88° East 499 574 39,000  Level Kansas City Center
Thu 12:43:24 PM 38.3286 -95.9164 88° East 499 574 39,000  Level Kansas City Center
Thu 12:44:25 PM 38.3336 -95.7197 88° East 499 574 39,000  Level Kansas City Center
Thu 12:45:28 PM 38.3372 -95.5506 88° East 501 577 39,000  Level Kansas City Center
Thu 12:46:28 PM 38.3419 -95.3522 88° East 503 579 39,000  Level Kansas City Center
Thu 12:47:32 PM 38.3453 -95.1847 88° East 502 578 39,000  Level Kansas City Center
Thu 12:48:33 PM 38.3492 -94.9844 89° East 505 581 39,000  Level Kansas City Center
Thu 12:49:34 PM 38.3525 -94.8167 88° East 500 575 39,000  Level Kansas City Center
Thu 12:50:35 PM 38.3558 -94.6194 89° East 500 575 39,000  Level Kansas City Center
Thu 12:51:37 PM 38.3583 -94.4511 89° East 499 574 39,000  Level Kansas City Center
Thu 12:52:39 PM 38.3597 -94.2847 89° East 495 570 39,000  Level Kansas City Center
Thu 12:53:39 PM 38.3611 -94.0928 89° East 491 565 39,000  Level Kansas City Center
Thu 12:54:43 PM 38.3633 -93.9189 89° East 487 560 39,000  Level Kansas City Center
Thu 12:55:44 PM 38.3647 -93.7467 89° East 486 559 39,000  Level Kansas City Center
Thu 12:56:45 PM 38.3656 -93.5761 90° East 482 555 39,000  Level Kansas City Center
Thu 12:57:48 PM 38.3672 -93.4053 89° East 480 552 39,000  Level Kansas City Center
Thu 12:58:50 PM 38.3672 -93.2325 90° East 483 556 39,000  Level Kansas City Center
Thu 12:59:50 PM 38.3689 -93.0597 89° East 484 557 39,000  Level Kansas City Center
Thu 01:00:55 PM 38.3694 -92.8506 90° East 488 562 39,000  Level Kansas City Center
Thu 01:01:56 PM 38.3689 -92.6775 90° East 486 559 39,000  Level Kansas City Center
Thu 01:02:58 PM 38.3686 -92.5044 90° East 485 558 39,000  Level Kansas City Center
Thu 01:04:02 PM 38.3678 -92.3272 90° East 488 562 39,000  Level Kansas City Center
Thu 01:05:02 PM 38.3667 -92.1494 90° East 493 567 39,000  Level Kansas City Center
Thu 01:06:04 PM 38.3647 -91.9736 91° East 492 566 39,000  Level Kansas City Center
Thu 01:07:04 PM 38.3631 -91.7972 91° East 493 567 39,000  Level Kansas City Center
Thu 01:08:08 PM 38.3603 -91.6208 91° East 495 570 39,000 387 Level Kansas City Center
Thu 01:09:08 PM 38.3589 -91.4467 91° East 491 565 39,800 496 Climbing Kansas City Center
Thu 01:10:09 PM 38.3578 -91.2558 90° East 489 563 40,000 96 Climbing Kansas City Center
Thu 01:11:13 PM 38.3544 -91.0833 91° East 490 564 40,000  Level Kansas City Center
Thu 01:12:13 PM 38.3506 -90.9119 92° East 488 562 40,000  Level Kansas City Center
Thu 01:13:16 PM 38.3450 -90.7442 92° East 479 551 40,000  Level Kansas City Center
Thu 01:14:17 PM 38.3367 -90.5417 93° East 484 557 40,000  Level Kansas City Center
Thu 01:15:17 PM 38.3275 -90.3614 94° East 489 563 40,000  Level Kansas City Center
Thu 01:16:21 PM 38.3267 -90.1883 90° East 497 572 40,000 -484 Level Kansas City Center
Thu 01:17:21 PM 38.3353 -90.0014 87° East 494 568 39,000 -484 Descending Kansas City Center
Thu 01:18:25 PM 38.3408 -89.8261 88° East 499 574 39,000  Level Kansas City Center
Thu 01:19:25 PM 38.3539 -89.6439 85° East 486 559 39,000  Level Kansas City Center
Thu 01:20:26 PM 38.3656 -89.4778 85° East 476 548 39,000  Level Kansas City Center
Thu 01:21:29 PM 38.3781 -89.3125 84° East 472 543 39,000 -435 Level Kansas City Center
Thu 01:22:30 PM 38.3869 -89.1311 86° East 479 551 38,100 -836 Descending Kansas City Center
Thu 01:23:31 PM 38.3919 -88.9583 88° East 489 563 37,300 -537 Descending Kansas City Center
Thu 01:24:33 PM 38.3925 -88.7708 90° East 492 566 37,000 -144 Descending Kansas City Center
Thu 01:25:36 PM 38.3811 -88.6072 95° East 485 558 37,000  Level Kansas City Center
Thu 01:26:38 PM 38.3725 -88.4353 94° East 483 556 37,000  Level Kansas City Center
Thu 01:27:38 PM 38.3625 -88.2617 94° East 487 560 37,000  Level Kansas City Center
Thu 01:28:42 PM 38.3553 -88.0892 93° East 486 559 37,000  Level Kansas City Center
Thu 01:28:59 PM 38.3528 -88.0192 93° East 490 564 37,000  Level Indianapolis Center
Thu 01:30:01 PM 38.3436 -87.8442 94° East 494 568 37,000  Level Indianapolis Center
Thu 01:31:02 PM 38.3342 -87.6714 94° East 491 565 37,000  Level Indianapolis Center
Thu 01:32:04 PM 38.3244 -87.4983 94° East 488 562 37,000  Level Indianapolis Center
Thu 01:33:05 PM 38.3139 -87.3261 94° East 487 560 37,000  Level Indianapolis Center
Thu 01:34:07 PM 38.3033 -87.1478 94° East 483 556 37,000  Level Indianapolis Center
Thu 01:35:08 PM 38.2922 -86.9756 95° East 484 557 37,000  Level Indianapolis Center
Thu 01:36:09 PM 38.2806 -86.7867 94° East 501 577 37,000  Level Indianapolis Center
Thu 01:37:11 PM 38.2697 -86.6117 94° East 496 571 37,000  Level Indianapolis Center
Thu 01:38:12 PM 38.2581 -86.4389 95° East 493 567 37,000  Level Indianapolis Center
Thu 01:39:14 PM 38.2464 -86.2689 95° East 482 555 37,000  Level Indianapolis Center
Thu 01:40:15 PM 38.2358 -86.1025 95° East 473 544 37,000 98 Level Indianapolis Center
Thu 01:41:17 PM 38.2233 -85.9347 95° East 475 547 37,200 976 Climbing Indianapolis Center
Thu 01:42:18 PM 38.2092 -85.7333 95° East 475 547 39,000 885 Climbing Indianapolis Center
Thu 01:43:19 PM 38.1967 -85.5675 95° East 471 542 39,000  Level Indianapolis Center
Thu 01:44:21 PM 38.1847 -85.4014 95° East 471 542 39,000  Level Indianapolis Center
Thu 01:45:22 PM 38.1719 -85.2364 96° East 468 539 39,000  Level Indianapolis Center
Thu 01:46:24 PM 38.1589 -85.0678 96° East 467 537 39,000  Level Indianapolis Center
Thu 01:47:25 PM 38.1469 -84.9025 95° East 469 540 39,000  Level Indianapolis Center
Thu 01:48:27 PM 38.1339 -84.7356 96° East 474 545 39,000  Level Indianapolis Center
Thu 01:49:28 PM 38.1208 -84.5714 96° East 468 539 39,000  Level Indianapolis Center
Thu 01:50:29 PM 38.1044 -84.4097 97° East 464 534 39,000  Level Indianapolis Center
Thu 01:51:31 PM 38.0903 -84.2456 96° East 465 535 39,000  Level Indianapolis Center
Thu 01:52:32 PM 38.0733 -84.0519 96° East 470 541 39,000  Level Indianapolis Center
Thu 01:53:34 PM 38.0583 -83.8853 96° East 473 544 39,000  Level Indianapolis Center
Thu 01:54:35 PM 38.0447 -83.7169 96° East 478 550 39,000  Level Indianapolis Center
Thu 01:55:36 PM 38.0306 -83.5519 96° East 472 543 39,000  Level Indianapolis Center
Thu 01:56:38 PM 38.0142 -83.3886 97° East 468 539 39,000  Level Indianapolis Center
Thu 01:57:39 PM 37.9983 -83.2242 97° East 470 541 39,000  Level Indianapolis Center
Thu 01:58:40 PM 37.9833 -83.0606 97° East 467 537 39,000  Level Indianapolis Center
Thu 01:59:42 PM 37.9672 -82.8931 97° East 475 547 39,000  Level Indianapolis Center
Thu 02:00:43 PM 37.9531 -82.7281 96° East 473 544 39,000  Level Indianapolis Center
Thu 02:01:44 PM 37.9742 -82.5625 81° East 476 548 39,000  Level Indianapolis Center
Thu 02:02:46 PM 38.0058 -82.3717 78° East 475 547 39,000  Level Indianapolis Center
Thu 02:03:47 PM 38.0325 -82.2075 78° East 475 547 39,000  Level Indianapolis Center
Thu 02:04:48 PM 38.0564 -82.0536 79° East 473 544 39,000  Level Indianapolis Center
Thu 02:05:50 PM 38.0828 -81.8919 78° East 472 543 39,000  Level Indianapolis Center
Thu 02:06:51 PM 38.1072 -81.7300 79° East 471 542 39,000  Level Indianapolis Center
Thu 02:07:53 PM 38.1325 -81.5700 79° East 466 536 39,000  Level Indianapolis Center
Thu 02:08:54 PM 38.1561 -81.4128 79° East 458 527 39,000 -98 Level Indianapolis Center
Thu 02:09:55 PM 38.1842 -81.2247 79° East 457 526 38,800 -478 Descending Indianapolis Center
Thu 02:10:47 PM 38.2028 -81.1092 78° East 448 516 38,100 -1,179 Descending Washington Center
Thu 02:11:47 PM 38.2272 -80.9392 80° East 441 507 36,600 -1,350 Descending Washington Center
Thu 02:12:47 PM 38.2511 -80.7744 79° East 454 522 35,400 -800 Descending Washington Center
Thu 02:13:47 PM 38.2767 -80.6119 79° East 467 537 35,000 -200 Descending Washington Center
Thu 02:14:47 PM 38.3003 -80.4494 79° East 473 544 35,000  Level Washington Center
Thu 02:15:47 PM 38.3206 -80.3028 80° East 465 535 35,000 -50 Level Washington Center
Thu 02:16:47 PM 38.3433 -80.1478 79° East 459 528 34,900 -500 Descending Washington Center
Thu 02:17:47 PM 38.3658 -79.9931 79° East 448 516 34,000 -550 Descending Washington Center
Thu 02:18:47 PM 38.3881 -79.8353 80° East 448 516 33,800 -600 Descending Washington Center
Thu 02:19:47 PM 38.4103 -79.6803 80° East 448 516 32,800 -1,050 Descending Washington Center
Thu 02:20:47 PM 38.4347 -79.5067 80° East 448 516 31,700 -1,050 Descending Washington Center
Thu 02:21:47 PM 38.4544 -79.3486 81° East 448 516 30,700 -1,000 Descending Washington Center
Thu 02:22:47 PM 38.4778 -79.1933 79° East 443 510 29,700 -950 Descending Washington Center
Thu 02:23:47 PM 38.4969 -79.0456 81° East 443 510 28,800 -950 Descending Washington Center
Thu 02:24:47 PM 38.5178 -78.8953 80° East 438 504 27,800 -1,000 Descending Washington Center
Thu 02:25:47 PM 38.5297 -78.7581 84° East 438 504 26,800 -1,000 Descending Washington Center
Thu 02:26:47 PM 38.5503 -78.6128 80° East 425 489 25,800 -1,200 Descending Washington Center
Thu 02:27:47 PM 38.5683 -78.4675 81° East 418 481 24,400 -1,700 Descending Washington Center
Thu 02:28:47 PM 38.5864 -78.3247 81° East 413 475 22,400 -2,000 Descending Washington Center
Thu 02:29:47 PM 38.6019 -78.1819 82° East 402 463 20,400 -1,700 Descending Washington Center
Thu 02:30:47 PM 38.6172 -78.0494 82° East 397 457 19,000 -700 Descending Washington Center
Thu 02:31:47 PM 38.6344 -77.9172 80° East 385 443 19,000  Level Washington Center
Thu 02:32:47 PM 38.6456 -77.7792 84° East 385 443 19,000  Level Washington Center
Thu 02:33:47 PM 38.6519 -77.6439 86° East 385 443 19,000 -550 Level Washington Center
Thu 02:34:36 PM 38.6667 -77.5167 82° East 366 421 18,000 -1,651 Descending Potomac TRACON
Thu 02:35:36 PM 38.6667 -77.3833 90° East 368 423 16,000 -1,350 Descending Potomac TRACON
Thu 02:36:36 PM 38.6833 -77.2667 80° East 332 382 15,300 -1,091 Descending Potomac TRACON
Thu 02:37:37 PM 38.6833 -77.1500 90° East 322 371 13,800 -1,587 Descending Potomac TRACON
Thu 02:38:37 PM 38.6833 -77.0500 90° East 317 365 12,100 -1,150 Descending Potomac TRACON
Thu 02:39:37 PM 38.7000 -76.9333 80° East 308 354 11,500 -1,050 Descending Potomac TRACON
Thu 02:40:37 PM 38.7000 -76.8333 90° East 307 353 10,000 -1,250 Descending Potomac TRACON
Thu 02:41:37 PM 38.7167 -76.7167 80° East 303 349 9,000 -1,200 Descending Potomac TRACON
Thu 02:42:37 PM 38.7500 -76.6333 63° Northeast 297 342 7,600 -1,526 Descending Potomac TRACON
Thu 02:43:31 PM 38.8000 -76.5500 52° Northeast 301 346 6,100 -1,316 Descending Potomac TRACON
Thu 02:44:31 PM 38.8833 -76.5500 360° North 301 346 5,100 -992 Descending Potomac TRACON
Thu 02:45:32 PM 38.9500 -76.5833 339° North 303 349 4,100 -545 Descending Potomac TRACON
Thu 02:46:32 PM 39.0000 -76.6667 308° West 262 302 4,000 -50 Descending Potomac TRACON
Thu 02:47:32 PM 39.0333 -76.7333 303° West 235 270 4,000  Level Potomac TRACON
Thu 02:48:32 PM 39.0667 -76.8000 303° West 234 269 4,000 -250 Level Potomac TRACON
Thu 02:49:32 PM 39.1000 -76.8833 297° West 237 273 3,500 -500 Descending Potomac TRACON
Thu 02:50:32 PM 39.1500 -76.9333 322° Northwest 236 272 3,000 -446 Descending Potomac TRACON
Thu 02:51:33 PM 39.1833 -76.9167 21° North 199 229 2,600 -397 Descending Potomac TRACON
Thu 02:52:33 PM 39.1833 -76.8500 90° East 170 196 2,200 -417 Descending Potomac TRACON
Thu 02:53:28 PM 39.1833 -76.8000 90° East 171 197 1,800 -626 Descending Potomac TRACON
Thu 02:54:28 PM 39.1833 -76.7333 90° East 139 160 1,000 -800 Descending Potomac TRACON
Thu 02:56:00 PM 39.1667 -76.6667 68° East  Level FlightAware Approximate

Login

Don't have an account? Register now (free) for customized features, flight alerts, and more!